Startpagina
METAR-TAF:

METAR-TAF

Vliegvelden :

Leticia, Colombia

breedte: 04-10S, lengte: 069-57W, hoogte: 84 m

Actueel weer

Dit bericht is 1 uur en het 4 minuten geleden gemaakt, om 13:00 UTC
Wind 2 kt uit variabele richting
Temperatuur 26°C
Vochtigheid 100%
Druk 1014 hPa
Zicht 10 km of meer
Verspreide wolken op 1300 ft
Geheel bewolkt op 8000 ft

METAR: SKLT 101300Z VRB02KT 9999 SCT013 OVC080 26/26 A2993

Tijdstip: 09:04 (14:04 UTC)

Verwachting

Dit bericht is 3 uur en het 34 minuten geleden gemaakt, om 10:30 UTC
Verwachting geldig van 10 om 12 UTC tot 11 om 12 UTC
Wind 2 kt uit variabele richting
Zicht 10 km of meer
Gebroken wolken op 1000 ft
Verspreide wolken op 8000 ft
Kans 40% :
Tijdelijke
van 10 om 17 UTC tot 10 om 21 UTC
Zicht: 5000 m
Gebroken wolken op 1000 ft, Cumulonimbus.
onweer, regen

TAF: SKLT 101030Z 1012/1112 VRB02KT 9999 BKN010 SCT080 PROB40 TEMPO 1017/1021 5000 TSRA BKN010CB TX32/1018Z TN23/1111Z

Waarnemingen en weersverwachtingen van meer dan 4000 vliegvelden (METAR en TAF).

De beschikbare stations zijn de gele en rode punten op de kaart.

Ga met uw muis naar het station om de naam te zien.

Klik dan om waarnemingen en weersverwachtingen te zien.

kaart wijzigen: klik op de groene knoppen met een zwart kruis om in te zoomen, op de groene knop met een streepje om uit te zoomen of op de groene pijlen voor aangrenzende kaarten.


METAR-TAF: